Time;durP1;ratioP1;P1;durP2;ratioP2;P2;SDS_P1;SDS_P2;PMS_P1;PMS_P2;Temp;Humidity;BMP_temperature;BMP_pressure;BME280_temperature;BME280_humidity;BME280_pressure;Samples;Min_cycle;Max_cycle;Signal;HPM_P1;HPM_P2
2024/03/28 00:01:44;;;;;;;1.93;1.83;;;14.70;53.00;;;;;;5012654;28;20221;-58
2024/03/28 00:04:10;;;;;;;2.50;2.30;;;14.70;53.00;;;;;;5009776;28;20243;-59
2024/03/28 00:06:35;;;;;;;2.70;2.30;;;14.60;53.00;;;;;;5010135;28;20201;-59
2024/03/28 00:09:01;;;;;;;2.37;2.10;;;14.60;53.00;;;;;;5008585;28;20778;-59
2024/03/28 00:11:26;;;;;;;2.13;2.00;;;14.60;52.90;;;;;;5010055;28;20576;-59
2024/03/28 00:13:52;;;;;;;1.80;1.70;;;14.60;52.70;;;;;;5010454;28;20213;-59
2024/03/28 00:16:18;;;;;;;2.23;1.70;;;14.50;52.70;;;;;;5009761;28;20756;-59
2024/03/28 00:18:43;;;;;;;1.60;1.50;;;14.50;52.80;;;;;;5008878;28;20182;-60
2024/03/28 00:21:09;;;;;;;1.83;1.57;;;14.20;52.40;;;;;;5009645;28;20173;-59
2024/03/28 00:23:34;;;;;;;4.33;2.13;;;14.10;52.10;;;;;;5007256;28;20982;-58
2024/03/28 00:26:00;;;;;;;1.50;1.40;;;14.10;52.30;;;;;;5002706;28;20562;-58
2024/03/28 00:28:26;;;;;;;1.80;1.70;;;14.10;52.20;;;;;;5002070;28;20258;-59
2024/03/28 00:30:52;;;;;;;1.43;1.33;;;14.10;51.30;;;;;;4999299;28;20449;-59
2024/03/28 00:33:18;;;;;;;2.10;1.60;;;14.00;51.70;;;;;;5002760;28;21275;-57
2024/03/28 00:35:45;;;;;;;1.80;1.57;;;14.00;51.80;;;;;;5011764;28;20460;-58
2024/03/28 00:38:11;;;;;;;1.40;1.30;;;14.00;51.70;;;;;;5009137;28;20912;-59
2024/03/28 00:40:45;;;;;;;1.37;1.27;;;13.80;50.70;;;;;;5005732;28;20993;-57
2024/03/28 00:43:10;;;;;;;2.10;1.20;;;13.40;51.50;;;;;;5001018;28;20833;-57
2024/03/28 00:45:36;;;;;;;1.50;1.40;;;13.40;52.40;;;;;;5001095;28;20441;-58
2024/03/28 00:48:03;;;;;;;1.77;1.40;;;13.40;52.30;;;;;;5002098;28;20602;-59
2024/03/28 00:50:28;;;;;;;1.37;0.97;;;13.60;52.00;;;;;;5001379;28;20203;-58
2024/03/28 00:52:54;;;;;;;1.27;1.17;;;13.40;51.00;;;;;;5002207;28;20433;-60
2024/03/28 00:55:19;;;;;;;3.93;1.60;;;13.30;51.70;;;;;;5007901;28;20212;-59
2024/03/28 00:57:45;;;;;;;1.57;1.47;;;13.50;51.90;;;;;;5011356;28;20206;-58
2024/03/28 01:00:11;;;;;;;1.47;1.37;;;13.70;51.90;;;;;;5008091;28;20623;-58
2024/03/28 01:02:36;;;;;;;1.87;1.73;;;13.70;52.30;;;;;;5009157;28;20198;-59
2024/03/28 01:05:02;;;;;;;2.00;1.67;;;13.60;52.80;;;;;;5007798;28;20178;-59
2024/03/28 01:07:27;;;;;;;2.43;2.20;;;13.60;52.90;;;;;;5008793;28;20256;-59
2024/03/28 01:09:53;;;;;;;5.23;1.93;;;13.40;54.00;;;;;;5001250;28;20261;-55
2024/03/28 01:12:18;;;;;;;1.73;1.63;;;13.50;53.80;;;;;;5001856;28;20185;-59
2024/03/28 01:14:44;;;;;;;1.97;1.67;;;13.70;53.30;;;;;;5002019;28;20252;-57
2024/03/28 01:17:09;;;;;;;2.10;2.00;;;13.60;53.30;;;;;;5002357;28;20585;-59
2024/03/28 01:19:35;;;;;;;1.50;1.40;;;13.60;53.80;;;;;;5007624;28;20243;-59
2024/03/28 01:22:01;;;;;;;1.60;1.40;;;13.70;53.20;;;;;;5002060;28;20181;-58
2024/03/28 01:24:26;;;;;;;3.00;1.70;;;13.70;53.40;;;;;;5004521;28;20189;-59
2024/03/28 01:26:52;;;;;;;1.70;1.60;;;13.60;53.10;;;;;;5002112;28;20209;-59
2024/03/28 01:29:17;;;;;;;2.10;1.90;;;13.20;54.60;;;;;;4999986;28;20186;-59
2024/03/28 01:31:43;;;;;;;2.57;1.73;;;13.30;54.20;;;;;;5001408;28;20681;-58
2024/03/28 01:34:08;;;;;;;2.10;2.00;;;13.20;54.60;;;;;;5000675;28;20411;-57
2024/03/28 01:36:34;;;;;;;2.30;2.10;;;13.10;55.40;;;;;;5001667;28;20210;-59
2024/03/28 01:39:00;;;;;;;2.40;2.20;;;13.10;55.30;;;;;;5000143;28;20188;-57
2024/03/28 01:41:26;;;;;;;2.73;2.20;;;13.20;54.70;;;;;;5008413;28;20421;-57
2024/03/28 01:43:51;;;;;;;4.57;2.13;;;13.00;55.40;;;;;;5009918;28;20186;-59
2024/03/28 01:46:17;;;;;;;2.80;2.60;;;12.90;55.40;;;;;;5009318;28;20801;-60
2024/03/28 01:48:44;;;;;;;2.27;2.07;;;12.90;55.20;;;;;;5005042;28;20240;-59
2024/03/28 01:51:10;;;;;;;3.00;2.20;;;12.80;55.50;;;;;;5006126;28;20236;-59
2024/03/28 01:53:36;;;;;;;3.13;2.20;;;12.60;56.20;;;;;;5004370;28;20452;-59
2024/03/28 01:56:04;;;;;;;2.40;2.20;;;12.70;56.20;;;;;;5003855;28;21155;-58
2024/03/28 01:58:31;;;;;;;2.43;2.23;;;12.70;55.60;;;;;;5002887;28;20440;-56
2024/03/28 02:00:57;;;;;;;2.60;2.40;;;12.80;55.20;;;;;;5005834;28;20444;-59
2024/03/28 02:03:22;;;;;;;2.63;2.43;;;12.70;55.90;;;;;;5004386;28;20436;-57
2024/03/28 02:05:49;;;;;;;1.90;1.80;;;12.60;56.10;;;;;;5004798;28;20483;-58
2024/03/28 02:08:15;;;;;;;2.60;2.40;;;12.50;56.80;;;;;;5003015;28;20573;-56
2024/03/28 02:10:40;;;;;;;2.90;2.70;;;12.40;56.90;;;;;;5003554;28;20506;-59
2024/03/28 02:13:07;;;;;;;2.90;2.63;;;12.40;57.10;;;;;;5005085;28;20233;-58
2024/03/28 02:15:33;;;;;;;2.17;1.97;;;12.50;57.10;;;;;;5005093;28;20593;-55
2024/03/28 02:17:58;;;;;;;2.80;2.60;;;12.70;56.40;;;;;;5012755;28;20452;-58
2024/03/28 02:20:24;;;;;;;3.80;2.70;;;12.70;56.00;;;;;;5003828;28;20190;-57
2024/03/28 02:22:49;;;;;;;2.43;2.30;;;12.70;55.50;;;;;;5004113;28;20226;-59
2024/03/28 02:25:15;;;;;;;2.93;2.63;;;12.50;56.00;;;;;;5004531;28;20200;-59
2024/03/28 02:27:40;;;;;;;2.37;2.17;;;12.10;56.60;;;;;;5004882;28;20693;-58
2024/03/28 02:30:07;;;;;;;2.47;2.27;;;12.10;56.70;;;;;;5002796;28;20633;-59
2024/03/28 02:32:34;;;;;;;2.57;2.37;;;12.20;57.00;;;;;;5005218;28;20244;-59
2024/03/28 02:35:01;;;;;;;2.90;2.70;;;12.30;56.60;;;;;;5003813;28;20991;-58
2024/03/28 02:37:27;;;;;;;4.43;3.10;;;12.40;56.30;;;;;;5003994;28;20453;-58
2024/03/28 02:39:55;;;;;;;2.70;2.40;;;12.50;56.00;;;;;;5002935;28;20448;-58
2024/03/28 02:42:21;;;;;;;2.60;2.40;;;12.50;55.40;;;;;;5005734;28;20272;-58
2024/03/28 02:44:46;;;;;;;2.70;2.50;;;12.50;56.00;;;;;;5005474;28;20548;-59
2024/03/28 02:47:12;;;;;;;2.77;2.50;;;12.30;55.40;;;;;;5003842;28;20833;-59
2024/03/28 02:49:37;;;;;;;2.27;2.13;;;12.00;56.20;;;;;;5003776;28;20186;-58
2024/03/28 02:52:03;;;;;;;3.47;2.53;;;11.90;56.20;;;;;;5006066;28;20240;-59
2024/03/28 02:54:29;;;;;;;5.27;2.33;;;11.60;57.80;;;;;;5004270;28;20604;-59
2024/03/28 02:57:04;;;;;;;2.87;2.40;;;11.60;57.80;;;;;;5010972;28;20712;-58
2024/03/28 02:59:31;;;;;;;2.63;1.90;;;11.70;58.10;;;;;;4997047;28;20189;-59
2024/03/28 03:01:57;;;;;;;1.97;1.87;;;11.80;56.70;;;;;;5002027;28;20471;-57
2024/03/28 03:04:23;;;;;;;2.50;2.30;;;11.60;57.40;;;;;;5002412;28;20507;-57
2024/03/28 03:06:49;;;;;;;2.70;2.50;;;11.60;57.40;;;;;;5003009;28;20472;-57
2024/03/28 03:09:15;;;;;;;2.50;2.30;;;11.70;56.80;;;;;;5000479;28;20473;-56
2024/03/28 03:11:41;;;;;;;2.17;1.97;;;11.90;56.50;;;;;;5003908;28;20186;-57
2024/03/28 03:14:08;;;;;;;2.50;2.30;;;11.90;55.90;;;;;;5001862;28;20497;-57
2024/03/28 03:16:34;;;;;;;1.90;1.80;;;12.00;55.80;;;;;;5003530;28;20506;-58
2024/03/28 03:19:00;;;;;;;2.10;2.00;;;12.00;55.40;;;;;;5002041;28;20369;-59
2024/03/28 03:21:26;;;;;;;2.97;2.23;;;12.10;55.30;;;;;;5002355;28;20464;-59
2024/03/28 03:24:00;;;;;;;2.17;1.70;;;12.00;55.20;;;;;;5007962;28;20536;-59
2024/03/28 03:26:32;;;;;;;2.60;2.40;;;11.80;54.70;;;;;;5004195;28;20288;-59
2024/03/28 03:34:35;;;;;;;2.67;2.43;;;11.80;55.80;;;;;;5000964;28;20479;-59
2024/03/28 03:37:07;;;;;;;2.50;2.30;;;11.70;56.10;;;;;;5002123;28;20464;-57
2024/03/28 03:39:33;;;;;;;2.57;2.37;;;11.70;56.00;;;;;;5001452;28;20954;-58
2024/03/28 03:41:59;;;;;;;4.40;2.53;;;11.60;56.30;;;;;;5001361;28;20540;-60
2024/03/28 03:44:24;;;;;;;2.53;2.33;;;11.70;55.60;;;;;;5007799;28;20186;-59
2024/03/28 03:46:50;;;;;;;2.50;2.30;;;11.70;55.70;;;;;;5013681;28;20245;-59
2024/03/28 03:49:16;;;;;;;3.10;2.23;;;11.70;55.30;;;;;;5005753;28;20194;-58
2024/03/28 03:51:41;;;;;;;3.10;2.80;;;11.70;54.70;;;;;;5003737;28;20194;-57
2024/03/28 03:54:07;;;;;;;2.30;2.10;;;11.30;54.00;;;;;;5002840;28;20232;-57
2024/03/28 03:56:33;;;;;;;2.10;2.00;;;11.00;55.40;;;;;;5001495;28;20581;-58
2024/03/28 03:58:58;;;;;;;2.77;2.57;;;11.10;56.20;;;;;;5007884;28;20601;-58
2024/03/28 04:01:25;;;;;;;2.77;2.57;;;11.30;55.40;;;;;;5002407;28;20193;-59
2024/03/28 04:03:50;;;;;;;2.80;2.60;;;11.30;55.10;;;;;;4999094;28;20267;-57
2024/03/28 04:06:16;;;;;;;5.77;3.13;;;11.30;54.90;;;;;;5001109;28;20952;-59
2024/03/28 04:08:41;;;;;;;3.73;2.47;;;11.20;55.60;;;;;;5001508;28;20189;-59
2024/03/28 04:11:07;;;;;;;2.53;2.33;;;11.20;55.60;;;;;;5001493;28;20194;-57
2024/03/28 04:13:33;;;;;;;3.40;2.87;;;11.30;55.20;;;;;;5002438;28;20676;-59
2024/03/28 04:15:58;;;;;;;2.93;2.73;;;11.20;55.10;;;;;;5002085;28;20664;-58
2024/03/28 04:18:24;;;;;;;3.80;2.30;;;11.30;55.00;;;;;;5001114;28;20208;-57
2024/03/28 04:20:50;;;;;;;3.10;2.53;;;11.10;54.50;;;;;;5001278;28;20646;-57
2024/03/28 04:23:16;;;;;;;2.30;2.10;;;11.20;54.80;;;;;;5002144;28;20182;-57
2024/03/28 04:25:42;;;;;;;2.60;2.40;;;11.20;56.30;;;;;;5008830;28;20441;-57
2024/03/28 04:28:07;;;;;;;2.77;2.57;;;11.40;55.50;;;;;;5001706;28;20995;-56
2024/03/28 04:30:35;;;;;;;2.50;2.27;;;11.40;54.20;;;;;;4998353;28;20276;-59
2024/03/28 04:33:02;;;;;;;3.00;2.70;;;11.40;54.50;;;;;;5000485;28;20564;-58
2024/03/28 04:35:28;;;;;;;2.73;2.13;;;11.40;54.80;;;;;;5000839;28;20489;-57
2024/03/28 04:37:53;;;;;;;2.87;2.27;;;11.40;54.60;;;;;;5001428;28;20452;-59
2024/03/28 04:40:19;;;;;;;2.60;2.40;;;11.30;54.60;;;;;;5000091;28;20193;-59
2024/03/28 04:42:51;;;;;;;2.23;2.07;;;11.10;55.10;;;;;;5000796;28;20198;-56
2024/03/28 04:45:20;;;;;;;2.10;1.90;;;11.00;55.60;;;;;;5006232;28;20491;-59
2024/03/28 04:47:47;;;;;;;2.77;2.57;;;11.10;55.40;;;;;;5000219;28;22010;-57
2024/03/28 04:50:17;;;;;;;2.93;2.40;;;11.10;55.80;;;;;;4999990;28;20468;-58
2024/03/28 04:52:42;;;;;;;2.53;2.33;;;10.80;55.40;;;;;;4999970;28;20440;-59
2024/03/28 04:55:08;;;;;;;2.47;2.27;;;10.80;55.60;;;;;;5002360;28;20484;-57
2024/03/28 04:57:34;;;;;;;2.20;2.00;;;10.60;55.60;;;;;;5010858;28;20228;-59
2024/03/28 05:00:00;;;;;;;2.33;2.20;;;10.50;55.50;;;;;;4990976;28;20186;-54
2024/03/28 05:02:27;;;;;;;2.43;2.23;;;10.30;56.60;;;;;;5009857;28;20177;-57
2024/03/28 05:04:52;;;;;;;3.47;2.80;;;10.20;56.90;;;;;;5006100;28;20440;-58
2024/03/28 05:07:19;;;;;;;2.73;2.30;;;10.30;57.00;;;;;;5008323;28;20830;-57
2024/03/28 05:09:48;;;;;;;4.03;2.97;;;10.60;56.30;;;;;;5009906;28;20182;-57
2024/03/28 05:12:13;;;;;;;2.47;2.27;;;10.80;55.70;;;;;;5010830;28;20482;-57
2024/03/28 05:14:39;;;;;;;3.17;2.87;;;10.90;55.00;;;;;;5007117;28;21016;-59
2024/03/28 05:17:08;;;;;;;3.07;2.60;;;10.90;55.20;;;;;;5008449;28;20251;-58
2024/03/28 05:19:34;;;;;;;2.80;2.60;;;11.00;55.00;;;;;;5013098;28;20424;-58
2024/03/28 05:22:02;;;;;;;3.27;2.97;;;11.00;55.20;;;;;;5021854;28;20440;-58
2024/03/28 05:24:28;;;;;;;2.60;2.40;;;10.80;55.40;;;;;;5017087;28;20189;-58
2024/03/28 05:26:53;;;;;;;3.20;2.90;;;10.90;55.50;;;;;;5014296;28;20867;-58
2024/03/28 05:29:19;;;;;;;3.40;3.10;;;11.00;55.30;;;;;;5014448;28;20198;-57
2024/03/28 05:31:45;;;;;;;2.93;2.60;;;11.10;55.60;;;;;;5012907;28;20192;-58
2024/03/28 05:34:10;;;;;;;2.73;2.53;;;11.20;54.50;;;;;;5013172;28;20292;-59
2024/03/28 05:36:37;;;;;;;2.90;2.70;;;11.10;55.20;;;;;;5006751;28;20206;-60
2024/03/28 05:39:05;;;;;;;2.80;2.60;;;11.10;54.80;;;;;;5004300;28;20646;-59
2024/03/28 05:41:36;;;;;;;2.37;2.17;;;11.00;55.70;;;;;;5016748;28;20466;-59
2024/03/28 05:44:02;;;;;;;2.53;2.33;;;11.00;56.10;;;;;;5016609;28;20425;-59
2024/03/28 05:46:28;;;;;;;2.57;2.37;;;11.00;56.20;;;;;;5018582;28;21006;-58
2024/03/28 05:48:54;;;;;;;6.20;5.60;;;11.00;56.10;;;;;;5007700;28;20437;-58
2024/03/28 05:51:20;;;;;;;2.77;2.47;;;11.00;56.10;;;;;;5007320;28;20194;-59
2024/03/28 05:53:48;;;;;;;2.90;2.20;;;10.60;55.90;;;;;;5005281;28;20490;-57
2024/03/28 05:56:20;;;;;;;7.87;2.40;;;10.80;56.80;;;;;;5007151;28;20182;-58
2024/03/28 05:58:47;;;;;;;2.40;2.20;;;11.00;57.00;;;;;;5005377;28;20527;-58
2024/03/28 06:01:13;;;;;;;2.90;2.33;;;11.20;56.00;;;;;;5007467;28;20424;-59
2024/03/28 06:03:40;;;;;;;2.27;1.83;;;11.40;56.00;;;;;;5007582;28;20451;-56
2024/03/28 06:06:06;;;;;;;3.50;3.00;;;11.40;55.50;;;;;;5012539;28;20439;-59
2024/03/28 06:08:32;;;;;;;2.80;2.60;;;11.60;54.50;;;;;;5010677;28;20932;-58
2024/03/28 06:10:57;;;;;;;2.60;2.40;;;11.30;54.40;;;;;;5007924;28;20432;-58
2024/03/28 06:13:23;;;;;;;2.40;2.20;;;11.10;55.80;;;;;;5006826;28;20185;-58
2024/03/28 06:15:49;;;;;;;2.47;2.27;;;11.10;55.90;;;;;;5007131;28;20236;-59
2024/03/28 06:18:15;;;;;;;3.00;2.30;;;11.30;56.00;;;;;;5008615;28;20213;-57
2024/03/28 06:20:41;;;;;;;2.73;2.53;;;11.60;55.20;;;;;;5013160;28;20437;-59
2024/03/28 06:23:07;;;;;;;2.20;2.00;;;11.70;55.00;;;;;;5020590;28;20185;-58
2024/03/28 06:25:41;;;;;;;2.83;2.63;;;12.10;54.40;;;;;;5017132;28;20532;-58
2024/03/28 06:28:08;;;;;;;3.00;2.70;;;12.50;53.90;;;;;;5019506;28;20221;-57
2024/03/28 06:30:35;;;;;;;3.20;2.63;;;12.60;53.90;;;;;;5008934;28;20817;-57
2024/03/28 06:33:01;;;;;;;3.13;2.83;;;12.90;53.50;;;;;;5013484;28;20484;-58
2024/03/28 06:35:27;;;;;;;2.57;2.37;;;13.20;53.00;;;;;;5012106;28;20598;-59
2024/03/28 06:37:52;;;;;;;3.40;2.30;;;13.40;52.60;;;;;;5009834;28;20202;-59
2024/03/28 06:40:18;;;;;;;2.50;2.30;;;13.50;52.60;;;;;;5009358;28;20641;-59
2024/03/28 06:42:44;;;;;;;1.80;1.70;;;13.00;51.40;;;;;;5015267;28;20251;-60
2024/03/28 06:45:10;;;;;;;5.80;2.27;;;13.00;53.10;;;;;;5009690;28;20445;-58
2024/03/28 06:47:35;;;;;;;3.23;2.93;;;13.00;52.30;;;;;;5009358;28;20267;-58
2024/03/28 06:50:01;;;;;;;6.50;1.90;;;13.20;53.20;;;;;;5012844;28;20182;-57
2024/03/28 06:52:27;;;;;;;2.20;2.00;;;13.40;52.90;;;;;;5010182;28;20189;-60
2024/03/28 06:54:53;;;;;;;2.60;2.40;;;13.80;52.20;;;;;;5011291;28;20230;-58
2024/03/28 06:57:18;;;;;;;2.77;2.23;;;14.10;51.40;;;;;;5009711;28;20469;-59
2024/03/28 06:59:44;;;;;;;2.23;2.03;;;14.30;51.00;;;;;;5008396;28;20437;-59
2024/03/28 07:02:10;;;;;;;4.10;2.40;;;14.50;49.70;;;;;;5009999;28;20220;-57
2024/03/28 07:04:35;;;;;;;1.87;1.77;;;14.60;49.50;;;;;;5008352;28;20182;-59
2024/03/28 07:07:01;;;;;;;2.67;2.47;;;14.50;50.10;;;;;;5009395;28;20198;-58
2024/03/28 07:09:26;;;;;;;4.90;2.77;;;14.30;50.40;;;;;;5011370;28;20709;-57
2024/03/28 07:11:52;;;;;;;4.60;2.70;;;14.30;50.50;;;;;;5013938;28;20674;-56
2024/03/28 07:14:18;;;;;;;3.20;2.90;;;14.30;50.30;;;;;;5013407;28;20260;-58
2024/03/28 07:16:44;;;;;;;6.50;3.27;;;14.30;50.00;;;;;;5010992;28;20198;-60
2024/03/28 07:19:10;;;;;;;3.27;2.97;;;14.20;50.70;;;;;;5007120;28;20448;-58
2024/03/28 07:21:36;;;;;;;3.23;2.57;;;13.90;51.20;;;;;;5014230;28;20874;-58
2024/03/28 07:24:02;;;;;;;2.60;2.40;;;13.70;51.90;;;;;;5012743;28;20455;-56
2024/03/28 07:26:28;;;;;;;2.50;2.30;;;13.70;51.90;;;;;;5016801;28;20440;-56
2024/03/28 07:28:53;;;;;;;2.43;2.23;;;13.70;51.90;;;;;;5013702;28;20420;-59
2024/03/28 07:31:19;;;;;;;2.63;2.40;;;13.80;51.40;;;;;;5015708;28;20186;-58
2024/03/28 07:33:45;;;;;;;3.13;2.70;;;13.90;51.50;;;;;;5014492;28;20182;-59
2024/03/28 07:36:11;;;;;;;2.47;2.27;;;13.90;51.60;;;;;;5016781;28;20273;-58
2024/03/28 07:38:37;;;;;;;2.70;2.50;;;13.90;51.80;;;;;;5013695;28;20182;-58
2024/03/28 07:41:03;;;;;;;3.27;3.07;;;13.90;52.00;;;;;;5015270;28;20835;-60
2024/03/28 07:43:29;;;;;;;3.67;3.37;;;13.90;53.00;;;;;;5014293;28;20433;-59
2024/03/28 07:46:02;;;;;;;3.97;2.93;;;13.80;52.90;;;;;;5014822;28;20463;-60
2024/03/28 07:48:29;;;;;;;3.27;2.97;;;13.80;53.40;;;;;;5013868;28;20420;-59
2024/03/28 07:51:02;;;;;;;4.60;2.80;;;13.70;53.50;;;;;;5014989;28;20793;-59
2024/03/28 07:53:28;;;;;;;2.83;2.60;;;13.60;53.90;;;;;;5014578;28;20181;-59
2024/03/28 07:55:54;;;;;;;2.83;2.63;;;13.60;54.00;;;;;;5014812;28;20569;-60
2024/03/28 07:58:20;;;;;;;2.70;2.50;;;13.60;54.30;;;;;;5014078;28;20629;-58
2024/03/28 08:00:46;;;;;;;2.47;2.27;;;13.60;54.00;;;;;;5013902;28;20479;-59
2024/03/28 08:03:16;;;;;;;2.90;2.60;;;13.50;53.70;;;;;;5016079;28;20425;-59
2024/03/28 08:05:49;;;;;;;2.20;2.00;;;13.50;54.00;;;;;;5007775;28;20854;-60
2024/03/28 08:08:15;;;;;;;2.33;2.13;;;13.60;54.40;;;;;;5015612;28;20456;-59
2024/03/28 08:10:41;;;;;;;2.77;2.00;;;13.60;54.10;;;;;;5011771;28;20804;-59
2024/03/28 08:13:07;;;;;;;3.77;2.17;;;13.60;53.70;;;;;;5015387;28;20524;-58
2024/03/28 08:15:33;;;;;;;2.17;1.90;;;13.70;53.80;;;;;;5014290;28;20248;-59
2024/03/28 08:18:00;;;;;;;3.10;2.60;;;13.60;54.30;;;;;;5012967;28;20690;-60
2024/03/28 08:20:29;;;;;;;5.40;2.60;;;13.70;54.60;;;;;;5013099;28;20468;-58
2024/03/28 08:22:58;;;;;;;2.63;2.43;;;13.60;54.80;;;;;;5012454;28;20441;-59
2024/03/28 08:25:24;;;;;;;4.30;3.30;;;13.70;54.90;;;;;;5015347;28;20421;-59
2024/03/28 08:27:51;;;;;;;2.53;2.07;;;13.80;55.10;;;;;;5013702;28;21073;-60
2024/03/28 08:30:17;;;;;;;3.63;2.03;;;13.70;54.20;;;;;;5013657;28;20572;-59
2024/03/28 08:32:44;;;;;;;2.07;1.87;;;13.60;53.40;;;;;;5013961;28;20425;-58
2024/03/28 08:35:13;;;;;;;2.13;1.93;;;13.40;53.90;;;;;;5014306;28;20480;-59
2024/03/28 08:37:39;;;;;;;2.97;2.10;;;13.50;54.00;;;;;;5013532;28;20445;-59
2024/03/28 08:40:11;;;;;;;2.47;2.27;;;13.40;53.90;;;;;;5010270;28;20962;-60
2024/03/28 08:42:43;;;;;;;2.70;2.00;;;13.40;54.50;;;;;;5010637;28;20185;-58
2024/03/28 08:45:10;;;;;;;2.27;1.70;;;13.40;54.60;;;;;;5012741;28;20798;-59
2024/03/28 08:47:35;;;;;;;4.03;1.90;;;13.20;54.60;;;;;;5013941;28;20579;-59
2024/03/28 08:50:03;;;;;;;1.90;1.67;;;12.80;55.40;;;;;;5012274;28;20532;-55
2024/03/28 08:52:29;;;;;;;1.83;1.70;;;12.40;56.10;;;;;;5013403;28;20208;-56
2024/03/28 08:54:56;;;;;;;1.87;1.73;;;12.20;57.20;;;;;;5012742;28;20515;-58
2024/03/28 08:57:25;;;;;;;1.43;1.33;;;12.00;57.80;;;;;;5015103;28;20448;-55
2024/03/28 08:59:51;;;;;;;1.47;1.37;;;11.70;58.50;;;;;;5009438;28;20427;-59
2024/03/28 09:02:21;;;;;;;1.30;1.20;;;11.80;58.80;;;;;;5015297;28;20421;-59
2024/03/28 09:04:47;;;;;;;1.27;1.17;;;11.90;59.20;;;;;;5011265;28;20523;-58
2024/03/28 09:07:19;;;;;;;1.20;1.10;;;11.80;58.90;;;;;;5014854;28;20482;-57
2024/03/28 09:09:44;;;;;;;1.23;1.13;;;11.90;59.30;;;;;;5008225;28;20413;-56
2024/03/28 09:12:10;;;;;;;3.00;1.00;;;11.80;59.50;;;;;;5012790;28;20482;-59
2024/03/28 09:14:37;;;;;;;1.00;0.80;;;11.70;59.80;;;;;;5012922;28;20213;-59
2024/03/28 09:17:03;;;;;;;1.17;0.90;;;11.50;59.60;;;;;;5013628;28;20883;-59
2024/03/28 09:19:28;;;;;;;1.83;1.13;;;11.50;60.50;;;;;;5012967;28;20515;-59
2024/03/28 09:21:54;;;;;;;1.23;0.90;;;11.80;60.50;;;;;;5012901;28;20232;-58
2024/03/28 09:24:21;;;;;;;2.03;0.90;;;11.90;60.40;;;;;;5012814;28;20182;-57
2024/03/28 09:26:48;;;;;;;1.33;1.00;;;11.80;60.30;;;;;;5013324;28;20572;-59
2024/03/28 09:29:19;;;;;;;0.60;0.57;;;11.70;60.20;;;;;;5013577;28;20421;-58
2024/03/28 09:31:48;;;;;;;1.13;1.00;;;11.50;60.00;;;;;;5007569;28;20943;-59
2024/03/28 09:34:14;;;;;;;1.30;1.13;;;11.50;60.90;;;;;;5013308;28;20499;-58
2024/03/28 09:36:41;;;;;;;1.13;1.00;;;11.60;60.90;;;;;;5013080;28;20456;-58
2024/03/28 09:39:07;;;;;;;0.70;0.60;;;11.70;60.70;;;;;;5013040;28;20448;-58
2024/03/28 09:41:33;;;;;;;2.93;1.73;;;11.80;59.90;;;;;;5013495;28;20931;-59
2024/03/28 09:44:10;;;;;;;0.73;0.73;;;11.90;60.20;;;;;;5012688;28;20475;-57
2024/03/28 09:46:36;;;;;;;1.23;1.13;;;12.00;59.90;;;;;;5012645;28;20475;-58
2024/03/28 09:49:02;;;;;;;0.70;0.70;;;12.10;59.40;;;;;;5010724;28;20448;-57
2024/03/28 09:51:30;;;;;;;1.93;0.83;;;12.10;59.70;;;;;;5014391;28;21001;-58
2024/03/28 09:53:58;;;;;;;0.97;0.80;;;12.00;59.50;;;;;;5011221;28;20433;-58
2024/03/28 09:56:25;;;;;;;1.20;1.10;;;11.90;59.30;;;;;;5014749;28;20522;-56
2024/03/28 09:58:51;;;;;;;0.87;0.70;;;12.10;59.90;;;;;;5011938;28;20932;-58
2024/03/28 10:01:17;;;;;;;0.80;0.70;;;11.90;58.60;;;;;;5014253;28;20417;-58
2024/03/28 10:03:52;;;;;;;0.80;0.80;;;11.70;59.40;;;;;;5012217;28;20828;-57
2024/03/28 10:06:17;;;;;;;0.80;0.60;;;11.70;59.20;;;;;;5017197;28;20413;-58
2024/03/28 10:08:43;;;;;;;0.63;0.60;;;11.90;59.60;;;;;;5015571;28;20423;-58
2024/03/28 10:11:09;;;;;;;1.90;0.77;;;12.10;59.10;;;;;;5017110;28;20198;-58
2024/03/28 10:13:35;;;;;;;0.90;0.80;;;12.30;59.00;;;;;;5016469;28;20186;-54
2024/03/28 10:16:02;;;;;;;0.67;0.60;;;12.50;58.70;;;;;;5011895;28;20223;-56
2024/03/28 10:18:30;;;;;;;0.80;0.60;;;12.50;59.00;;;;;;5012669;28;20762;-57
2024/03/28 10:20:56;;;;;;;0.70;0.70;;;12.60;58.70;;;;;;5015270;28;20500;-58
2024/03/28 10:23:23;;;;;;;0.80;0.80;;;12.70;57.70;;;;;;5017472;28;20419;-54
2024/03/28 10:25:51;;;;;;;0.93;0.60;;;12.70;57.50;;;;;;5016371;28;20449;-58
2024/03/28 10:28:30;;;;;;;0.80;0.60;;;12.60;56.80;;;;;;5017039;28;20460;-56
2024/03/28 10:31:00;;;;;;;1.07;0.80;;;12.80;56.80;;;;;;5015385;28;20774;-58
2024/03/28 10:33:26;;;;;;;1.00;0.60;;;12.90;57.00;;;;;;4997864;28;20801;-57
2024/03/28 10:36:00;;;;;;;0.80;0.80;;;12.70;56.50;;;;;;5016106;28;20475;-56
2024/03/28 10:38:26;;;;;;;0.73;0.73;;;13.00;56.60;;;;;;5016675;28;20207;-58
2024/03/28 10:40:58;;;;;;;0.70;0.70;;;13.10;56.50;;;;;;5014655;28;20432;-58
2024/03/28 10:43:27;;;;;;;1.10;0.80;;;13.10;55.90;;;;;;5017003;28;20184;-57
2024/03/28 10:46:01;;;;;;;0.73;0.73;;;13.00;55.60;;;;;;5015945;28;20421;-58
2024/03/28 10:48:28;;;;;;;1.90;0.77;;;13.10;55.60;;;;;;5013717;28;20502;-56
2024/03/28 10:51:10;;;;;;;0.97;0.80;;;13.10;54.40;;;;;;5015030;28;20428;-56
2024/03/28 10:54:03;;;;;;;1.17;0.80;;;13.00;53.80;;;;;;5014066;28;20437;-57
2024/03/28 10:56:33;;;;;;;0.80;0.80;;;13.20;54.20;;;;;;5014065;28;21040;-57
2024/03/28 10:59:03;;;;;;;1.80;0.70;;;13.40;54.20;;;;;;5014604;28;20563;-58
2024/03/28 11:01:32;;;;;;;1.23;0.70;;;13.70;52.60;;;;;;5014954;28;20574;-58
2024/03/28 11:04:01;;;;;;;0.63;0.63;;;13.70;53.20;;;;;;5015148;28;20535;-58
2024/03/28 11:06:27;;;;;;;0.70;0.50;;;13.60;52.40;;;;;;5012463;28;20737;-58
2024/03/28 11:08:57;;;;;;;0.87;0.50;;;13.50;51.70;;;;;;5014426;28;20850;-57
2024/03/28 11:11:24;;;;;;;0.60;0.60;;;13.50;51.70;;;;;;5016749;28;20416;-57
2024/03/28 11:13:50;;;;;;;0.60;0.60;;;13.50;51.10;;;;;;5014713;28;20428;-55
2024/03/28 11:16:21;;;;;;;1.93;0.60;;;13.40;50.30;;;;;;5016261;28;20424;-56
2024/03/28 11:18:47;;;;;;;0.70;0.60;;;13.40;50.80;;;;;;5014501;28;20917;-58
2024/03/28 11:21:12;;;;;;;1.87;0.70;;;13.50;51.50;;;;;;5015241;28;20927;-58
2024/03/28 11:23:45;;;;;;;0.60;0.50;;;13.60;50.60;;;;;;5015065;28;20429;-57
2024/03/28 11:26:11;;;;;;;4.60;0.70;;;13.50;50.60;;;;;;5016312;28;20193;-57
2024/03/28 11:28:39;;;;;;;0.90;0.70;;;13.60;49.70;;;;;;5014979;28;20429;-54
2024/03/28 11:31:05;;;;;;;2.23;0.90;;;13.80;50.50;;;;;;5015325;28;20447;-56
2024/03/28 11:33:39;;;;;;;2.07;0.77;;;13.70;49.70;;;;;;5014776;28;20959;-58
2024/03/28 11:36:07;;;;;;;0.60;0.60;;;13.90;50.10;;;;;;5015392;28;20465;-58
2024/03/28 11:38:37;;;;;;;0.60;0.60;;;13.90;49.50;;;;;;5015384;28;20420;-57
2024/03/28 11:41:05;;;;;;;1.20;1.10;;;14.10;49.00;;;;;;5014462;28;20429;-56
2024/03/28 11:43:32;;;;;;;1.17;0.50;;;13.90;48.30;;;;;;5015464;28;20474;-56
2024/03/28 11:46:01;;;;;;;1.40;0.67;;;13.90;48.60;;;;;;5014617;28;20431;-54
2024/03/28 11:48:34;;;;;;;1.60;0.63;;;14.10;49.10;;;;;;5012716;28;20455;-58
2024/03/28 11:51:05;;;;;;;0.50;0.50;;;14.30;48.30;;;;;;5014147;28;20417;-58
2024/03/28 11:53:34;;;;;;;0.90;0.70;;;14.40;47.70;;;;;;5012924;28;20432;-56
2024/03/28 11:56:00;;;;;;;0.70;0.60;;;14.10;47.40;;;;;;5014205;28;20559;-54
2024/03/28 11:58:28;;;;;;;1.37;0.60;;;14.40;47.50;;;;;;5015491;28;20992;-53
2024/03/28 12:00:57;;;;;;;0.50;0.50;;;14.40;46.90;;;;;;5013619;28;20425;-56
2024/03/28 12:03:23;;;;;;;0.50;0.40;;;14.50;47.00;;;;;;5015408;28;20486;-56
2024/03/28 12:05:50;;;;;;;1.20;0.60;;;14.50;46.50;;;;;;5014214;28;20957;-57
2024/03/28 12:08:16;;;;;;;0.80;0.60;;;14.80;46.00;;;;;;5015532;28;20212;-52
2024/03/28 12:10:42;;;;;;;1.83;0.70;;;14.80;46.00;;;;;;5012896;28;20937;-56
2024/03/28 12:13:08;;;;;;;0.60;0.53;;;14.80;45.30;;;;;;5014987;28;20269;-56
2024/03/28 12:15:37;;;;;;;0.70;0.60;;;14.80;45.50;;;;;;5014214;28;20480;-58
2024/03/28 12:18:03;;;;;;;0.60;0.50;;;14.90;45.30;;;;;;5014048;28;20206;-58
2024/03/28 12:20:30;;;;;;;0.57;0.50;;;15.00;45.00;;;;;;5012853;28;20470;-57
2024/03/28 12:22:57;;;;;;;0.60;0.60;;;15.10;44.70;;;;;;5013987;28;20265;-58
2024/03/28 12:25:23;;;;;;;1.20;0.50;;;15.40;44.90;;;;;;5014691;28;20420;-57
2024/03/28 12:27:57;;;;;;;0.50;0.50;;;15.40;43.20;;;;;;5012455;28;20452;-58
2024/03/28 12:30:24;;;;;;;0.70;0.70;;;15.40;42.90;;;;;;5013935;28;20420;-57
2024/03/28 12:33:04;;;;;;;0.50;0.50;;;15.50;43.30;;;;;;5012132;28;20417;-57
2024/03/28 12:35:34;;;;;;;0.80;0.60;;;15.50;41.20;;;;;;5013054;28;20875;-57
2024/03/28 12:38:01;;;;;;;0.63;0.50;;;15.50;42.00;;;;;;5013717;28;20436;-59
2024/03/28 12:40:28;;;;;;;0.50;0.50;;;15.60;41.50;;;;;;5010068;28;20478;-56
2024/03/28 12:42:55;;;;;;;0.90;0.80;;;15.70;41.50;;;;;;5013653;28;20413;-59
2024/03/28 12:45:26;;;;;;;2.77;0.60;;;15.60;40.80;;;;;;5014520;28;20435;-57
2024/03/28 12:47:52;;;;;;;0.87;0.60;;;15.60;41.50;;;;;;5013417;28;20946;-59
2024/03/28 12:50:23;;;;;;;1.00;0.60;;;15.60;42.00;;;;;;5012408;28;20916;-58
2024/03/28 12:52:51;;;;;;;2.00;0.60;;;15.60;42.60;;;;;;5013430;28;20425;-58